Time;durP1;ratioP1;P1;durP2;ratioP2;P2;SDS_P1;SDS_P2;PMS_P1;PMS_P2;Temp;Humidity;BMP_temperature;BMP_pressure;BME280_temperature;BME280_humidity;BME280_pressure;Samples;Min_cycle;Max_cycle;Signal;HPM_P1;HPM_P2
2021/04/05 00:01:31;;;;;;;3.92;1.45;;;;;;;;;;4984261;28;20042;-75
2021/04/05 00:04:35;;;;;;;6.00;1.30;;;;;;;;;;4995350;28;20046;-75
2021/04/05 00:07:49;;;;;;;3.10;1.55;;;;;;;;;;4995999;28;20038;-77
2021/04/05 00:10:54;;;;;;;6.72;1.35;;;;;;;;;;4995943;28;20042;-73
2021/04/05 00:13:59;;;;;;;2.03;1.10;;;;;;;;;;4996634;28;20034;-76
2021/04/05 00:17:03;;;;;;;1.40;1.00;;;;;;;;;;4984034;28;20050;-75
2021/04/05 00:20:10;;;;;;;2.40;0.95;;;;;;;;;;4995700;28;20035;-75
2021/04/05 00:23:15;;;;;;;2.55;1.10;;;;;;;;;;4995778;28;20046;-75
2021/04/05 00:26:19;;;;;;;2.55;1.00;;;;;;;;;;4995597;28;20042;-74
2021/04/05 00:29:24;;;;;;;3.05;1.17;;;;;;;;;;4995222;28;20391;-74
2021/04/05 00:32:28;;;;;;;3.00;1.33;;;;;;;;;;4995002;28;20042;-75
2021/04/05 00:35:35;;;;;;;4.60;1.40;;;;;;;;;;4995440;28;20054;-75
2021/04/05 00:38:39;;;;;;;1.70;1.10;;;;;;;;;;4983087;28;20486;-75
2021/04/05 00:41:43;;;;;;;1.92;1.10;;;;;;;;;;4994633;28;20522;-76
2021/04/05 00:45:10;;;;;;;2.42;1.30;;;;;;;;;;4986675;28;20379;-75
2021/04/05 00:48:15;;;;;;;2.72;1.50;;;;;;;;;;4984091;28;20026;-75
2021/04/05 00:51:21;;;;;;;3.05;1.27;;;;;;;;;;4995878;28;20046;-75
2021/04/05 00:54:26;;;;;;;3.72;1.42;;;;;;;;;;4995830;28;20038;-74
2021/04/05 00:57:30;;;;;;;4.70;1.13;;;;;;;;;;4995841;28;20050;-74
2021/04/05 01:00:37;;;;;;;1.98;1.42;;;;;;;;;;4995670;28;20030;-76
2021/04/05 01:03:43;;;;;;;3.65;0.98;;;;;;;;;;4995226;28;20367;-77
2021/04/05 01:06:48;;;;;;;3.90;1.30;;;;;;;;;;4995048;28;20038;-75
2021/04/05 01:09:52;;;;;;;2.97;1.40;;;;;;;;;;4995727;28;20046;-76
2021/04/05 01:12:57;;;;;;;2.63;1.33;;;;;;;;;;4994827;28;20038;-75
2021/04/05 01:16:01;;;;;;;3.25;1.30;;;;;;;;;;4995103;28;20478;-76
2021/04/05 01:19:06;;;;;;;3.08;1.20;;;;;;;;;;4995029;28;20034;-75
2021/04/05 01:22:10;;;;;;;2.50;1.33;;;;;;;;;;4994761;28;20046;-75
2021/04/05 01:25:16;;;;;;;5.32;1.48;;;;;;;;;;4994883;28;20030;-76
2021/04/05 01:28:20;;;;;;;3.28;1.20;;;;;;;;;;4993781;28;20042;-75
2021/04/05 01:31:24;;;;;;;2.65;1.40;;;;;;;;;;4994175;28;20050;-74
2021/04/05 01:34:29;;;;;;;3.92;1.42;;;;;;;;;;4993994;28;20046;-75
2021/04/05 01:37:34;;;;;;;5.13;1.35;;;;;;;;;;4994572;28;20042;-75
2021/04/05 01:40:39;;;;;;;3.03;1.40;;;;;;;;;;4993708;28;20042;-77
2021/04/05 01:43:43;;;;;;;2.92;1.50;;;;;;;;;;4994402;28;20050;-76
2021/04/05 01:46:48;;;;;;;1.48;1.10;;;;;;;;;;4994330;28;20042;-75
2021/04/05 01:50:05;;;;;;;4.05;1.30;;;;;;;;;;4995221;28;20047;-78
2021/04/05 01:53:09;;;;;;;4.10;1.20;;;;;;;;;;4993978;28;20038;-76
2021/04/05 01:56:14;;;;;;;2.55;1.20;;;;;;;;;;4994180;28;20383;-75
2021/04/05 01:59:19;;;;;;;3.63;1.42;;;;;;;;;;4994132;28;20035;-75
2021/04/05 02:02:24;;;;;;;2.88;1.77;;;;;;;;;;4993621;28;20375;-75
2021/04/05 02:05:29;;;;;;;3.45;1.50;;;;;;;;;;4993618;28;20042;-76
2021/04/05 02:08:34;;;;;;;3.15;1.20;;;;;;;;;;4993754;28;20038;-76
2021/04/05 02:11:39;;;;;;;3.35;1.77;;;;;;;;;;4993721;28;20556;-76
2021/04/05 02:14:44;;;;;;;4.82;1.35;;;;;;;;;;4992993;28;20034;-75
2021/04/05 02:17:48;;;;;;;6.03;1.30;;;;;;;;;;4994486;28;20046;-75
2021/04/05 02:20:54;;;;;;;4.45;1.60;;;;;;;;;;4994571;28;20368;-76
2021/04/05 02:24:03;;;;;;;2.85;1.60;;;;;;;;;;4993596;28;20038;-77
2021/04/05 02:27:08;;;;;;;3.28;1.40;;;;;;;;;;4981294;28;20038;-75
2021/04/05 02:30:23;;;;;;;2.70;1.55;;;;;;;;;;4993078;28;20050;-76
2021/04/05 02:33:27;;;;;;;2.47;1.25;;;;;;;;;;4992805;28;20050;-75
2021/04/05 02:36:32;;;;;;;4.05;1.58;;;;;;;;;;4993417;28;20379;-75
2021/04/05 02:39:36;;;;;;;3.25;1.40;;;;;;;;;;4993376;28;20042;-74
2021/04/05 02:42:41;;;;;;;3.92;1.40;;;;;;;;;;4993221;28;20502;-74
2021/04/05 02:45:46;;;;;;;4.10;1.52;;;;;;;;;;4992866;28;20034;-74
2021/04/05 02:48:51;;;;;;;4.72;1.05;;;;;;;;;;4981394;28;20042;-76
2021/04/05 02:51:56;;;;;;;3.42;1.60;;;;;;;;;;4993148;28;20039;-75
2021/04/05 02:55:00;;;;;;;2.97;1.33;;;;;;;;;;4981159;28;20038;-74
2021/04/05 02:58:06;;;;;;;3.53;1.58;;;;;;;;;;4992901;28;20039;-75
2021/04/05 03:01:11;;;;;;;3.80;1.25;;;;;;;;;;4993365;28;20042;-77
2021/04/05 03:04:16;;;;;;;4.22;1.10;;;;;;;;;;4993158;28;20038;-77
2021/04/05 03:07:21;;;;;;;3.47;1.20;;;;;;;;;;4992699;28;20034;-77
2021/04/05 03:10:27;;;;;;;6.32;1.63;;;;;;;;;;4992993;28;20042;-75
2021/04/05 03:13:32;;;;;;;5.18;1.40;;;;;;;;;;4993122;28;20038;-76
2021/04/05 03:16:37;;;;;;;2.95;0.88;;;;;;;;;;4993138;28;20038;-75
2021/04/05 03:19:43;;;;;;;2.72;1.45;;;;;;;;;;4992776;28;20382;-75
2021/04/05 03:22:47;;;;;;;4.50;1.63;;;;;;;;;;4992857;28;20050;-75
2021/04/05 03:25:52;;;;;;;2.72;1.80;;;;;;;;;;4995071;28;20038;-76
2021/04/05 03:28:56;;;;;;;4.70;1.58;;;;;;;;;;4996132;28;20042;-75
2021/04/05 03:32:01;;;;;;;2.45;1.40;;;;;;;;;;4996536;28;20054;-74
2021/04/05 03:35:06;;;;;;;7.80;1.63;;;;;;;;;;4996461;28;20054;-74
2021/04/05 03:38:11;;;;;;;3.03;1.48;;;;;;;;;;4995938;28;20375;-75
2021/04/05 03:41:34;;;;;;;5.50;1.45;;;;;;;;;;4996071;28;20039;-75
2021/04/05 03:44:48;;;;;;;3.42;1.63;;;;;;;;;;4996100;28;20038;-75
2021/04/05 03:48:04;;;;;;;2.22;1.45;;;;;;;;;;4983994;28;20034;-75
2021/04/05 03:51:08;;;;;;;4.20;1.77;;;;;;;;;;4984193;28;20383;-76
2021/04/05 03:54:14;;;;;;;4.03;1.80;;;;;;;;;;4996151;28;20039;-75
2021/04/05 03:57:20;;;;;;;6.35;1.50;;;;;;;;;;4995690;28;20042;-76
2021/04/05 04:00:26;;;;;;;4.95;1.48;;;;;;;;;;4995948;28;20498;-74
2021/04/05 04:03:37;;;;;;;5.45;1.42;;;;;;;;;;4996119;28;20042;-76
2021/04/05 04:07:09;;;;;;;2.70;1.50;;;;;;;;;;4995490;28;20482;-75
2021/04/05 04:10:11;;;;;;;3.47;1.40;;;;;;;;;;4995530;28;20054;-76
2021/04/05 04:13:16;;;;;;;4.57;1.30;;;;;;;;;;4995862;28;20034;-76
2021/04/05 04:16:20;;;;;;;5.55;1.70;;;;;;;;;;4995450;28;20074;-76
2021/04/05 04:19:25;;;;;;;2.92;1.95;;;;;;;;;;4995816;28;20042;-75
2021/04/05 04:22:32;;;;;;;4.15;1.40;;;;;;;;;;4995837;28;20042;-76
2021/04/05 04:25:36;;;;;;;4.18;1.55;;;;;;;;;;4984172;28;20042;-74
2021/04/05 04:28:45;;;;;;;3.03;1.70;;;;;;;;;;4995896;28;20042;-76
2021/04/05 04:31:50;;;;;;;3.63;1.95;;;;;;;;;;4996319;28;20038;-75
2021/04/05 04:34:56;;;;;;;2.97;1.80;;;;;;;;;;4984200;28;20038;-76
2021/04/05 04:38:04;;;;;;;3.10;1.63;;;;;;;;;;4995668;28;20047;-77
2021/04/05 04:41:08;;;;;;;3.15;1.75;;;;;;;;;;4996591;28;20034;-76
2021/04/05 04:44:13;;;;;;;2.80;1.80;;;;;;;;;;4996354;28;20539;-75
2021/04/05 04:47:18;;;;;;;6.53;1.83;;;;;;;;;;4995603;28;20042;-74
2021/04/05 04:50:24;;;;;;;3.38;1.70;;;;;;;;;;4996605;28;20383;-74
2021/04/05 04:53:28;;;;;;;6.72;1.90;;;;;;;;;;4996572;28;20034;-76
2021/04/05 04:56:33;;;;;;;3.38;1.70;;;;;;;;;;4995820;28;20050;-76
2021/04/05 04:59:37;;;;;;;3.53;1.58;;;;;;;;;;4997247;28;20375;-75
2021/04/05 05:02:42;;;;;;;3.67;1.45;;;;;;;;;;4997274;28;20478;-76
2021/04/05 05:05:47;;;;;;;3.42;1.60;;;;;;;;;;4996354;28;20038;-76
2021/04/05 05:08:54;;;;;;;2.78;1.77;;;;;;;;;;4997182;28;20043;-76
2021/04/05 05:12:00;;;;;;;2.28;1.58;;;;;;;;;;4997580;28;20043;-76
2021/04/05 05:15:10;;;;;;;5.28;1.80;;;;;;;;;;4997057;28;20046;-76
2021/04/05 05:18:15;;;;;;;3.20;1.83;;;;;;;;;;4995593;28;20031;-73
2021/04/05 05:21:23;;;;;;;5.45;2.15;;;;;;;;;;4996212;28;20056;-75
2021/04/05 05:24:30;;;;;;;6.45;1.85;;;;;;;;;;4996088;28;20035;-76
2021/04/05 05:27:38;;;;;;;2.95;1.50;;;;;;;;;;4997876;28;20038;-75
2021/04/05 05:30:42;;;;;;;5.55;1.63;;;;;;;;;;4982965;28;20387;-76
2021/04/05 05:33:50;;;;;;;5.35;1.52;;;;;;;;;;4995013;28;20050;-75
2021/04/05 05:36:54;;;;;;;2.53;1.80;;;;;;;;;;4995604;28;20038;-77
2021/04/05 05:39:59;;;;;;;3.78;1.63;;;;;;;;;;4995780;28;20371;-78
2021/04/05 05:43:20;;;;;;;4.35;1.48;;;;;;;;;;4995822;28;20042;-77
2021/04/05 05:46:31;;;;;;;6.03;1.58;;;;;;;;;;4996135;28;20042;-77
2021/04/05 05:49:48;;;;;;;2.97;1.48;;;;;;;;;;4996155;28;20042;-76
2021/04/05 05:53:16;;;;;;;3.47;1.40;;;;;;;;;;4997175;28;20355;-77
2021/04/05 05:56:20;;;;;;;7.68;1.65;;;;;;;;;;4995692;28;20379;-77
2021/04/05 05:59:26;;;;;;;3.75;1.70;;;;;;;;;;4997376;28;20042;-78
2021/04/05 06:02:48;;;;;;;3.58;2.00;;;;;;;;;;4996915;28;20050;-75
2021/04/05 06:05:58;;;;;;;4.65;1.63;;;;;;;;;;4996528;28;20035;-75
2021/04/05 06:09:12;;;;;;;8.30;2.45;;;;;;;;;;4983690;28;20141;-75
2021/04/05 06:12:35;;;;;;;10.13;2.50;;;;;;;;;;4996926;28;20490;-76
2021/04/05 06:15:53;;;;;;;4.63;2.10;;;;;;;;;;4995306;28;20053;-76
2021/04/05 06:19:00;;;;;;;4.70;2.20;;;;;;;;;;4993987;28;20042;-76
2021/04/05 06:22:07;;;;;;;9.48;2.38;;;;;;;;;;4993504;28;20046;-68
2021/04/05 06:25:21;;;;;;;6.35;1.90;;;;;;;;;;4992649;28;20042;-69
2021/04/05 06:28:35;;;;;;;4.03;1.85;;;;;;;;;;4992172;28;20030;-67
2021/04/05 06:31:51;;;;;;;3.83;1.65;;;;;;;;;;4980323;28;20046;-69
2021/04/05 06:34:55;;;;;;;5.43;1.90;;;;;;;;;;4991851;28;20050;-69
2021/04/05 06:38:01;;;;;;;3.75;1.73;;;;;;;;;;4992191;28;20034;-68
2021/04/05 06:41:25;;;;;;;5.15;1.90;;;;;;;;;;4980726;28;20038;-68
2021/04/05 06:44:30;;;;;;;6.95;1.63;;;;;;;;;;4992130;28;20471;-68
2021/04/05 06:47:53;;;;;;;4.10;1.75;;;;;;;;;;4992566;28;20054;-68
2021/04/05 06:51:16;;;;;;;3.42;1.70;;;;;;;;;;4991828;28;20046;-68
2021/04/05 06:54:39;;;;;;;4.63;2.08;;;;;;;;;;4992314;28;20050;-68
2021/04/05 06:57:46;;;;;;;4.07;1.65;;;;;;;;;;4980345;28;20043;-67
2021/04/05 07:01:08;;;;;;;4.97;1.50;;;;;;;;;;4994844;28;20046;-68
2021/04/05 07:04:22;;;;;;;3.47;1.70;;;;;;;;;;4996083;28;20039;-68
2021/04/05 07:07:34;;;;;;;6.97;1.90;;;;;;;;;;4995888;28;20042;-68
2021/04/05 07:10:44;;;;;;;3.85;1.83;;;;;;;;;;4995918;28;20391;-66
2021/04/05 07:14:00;;;;;;;4.38;1.83;;;;;;;;;;4995891;28;20038;-68
2021/04/05 07:17:16;;;;;;;5.32;2.00;;;;;;;;;;4995681;28;20042;-66
2021/04/05 07:20:28;;;;;;;3.83;2.03;;;;;;;;;;4983502;28;20038;-68
2021/04/05 07:23:50;;;;;;;4.38;1.70;;;;;;;;;;4983685;28;20065;-67
2021/04/05 07:26:54;;;;;;;5.03;2.03;;;;;;;;;;4995646;28;20383;-72
2021/04/05 07:30:08;;;;;;;5.97;2.00;;;;;;;;;;4982921;28;20054;-63
2021/04/05 07:33:19;;;;;;;4.88;1.95;;;;;;;;;;4993793;28;20042;-61
2021/04/05 07:36:42;;;;;;;8.73;2.30;;;;;;;;;;4995137;28;20601;-62
2021/04/05 07:39:58;;;;;;;6.68;1.98;;;;;;;;;;4994990;28;20038;-62
2021/04/05 07:43:05;;;;;;;6.50;2.20;;;;;;;;;;4995217;28;20049;-60
2021/04/05 07:46:29;;;;;;;7.18;2.45;;;;;;;;;;4995044;28;20038;-61
2021/04/05 07:49:36;;;;;;;6.28;2.22;;;;;;;;;;4994945;28;20043;-60
2021/04/05 07:52:47;;;;;;;5.18;2.80;;;;;;;;;;4995255;28;20034;-68
2021/04/05 07:55:53;;;;;;;6.03;2.40;;;;;;;;;;4994953;28;20038;-61
2021/04/05 07:59:26;;;;;;;4.47;2.13;;;;;;;;;;4993207;28;20042;-62
2021/04/05 08:02:39;;;;;;;5.93;2.20;;;;;;;;;;4969304;28;20050;-60
2021/04/05 08:05:53;;;;;;;13.50;5.75;;;;;;;;;;4994747;28;20376;-61
2021/04/05 08:09:04;;;;;;;10.25;2.20;;;;;;;;;;4994826;28;20038;-60
2021/04/05 08:12:15;;;;;;;3.55;2.22;;;;;;;;;;4993096;28;20051;-62
2021/04/05 08:15:22;;;;;;;5.38;2.63;;;;;;;;;;4994369;28;20371;-62
2021/04/05 08:18:42;;;;;;;9.02;2.03;;;;;;;;;;4994546;28;20042;-61
2021/04/05 08:21:58;;;;;;;5.43;3.40;;;;;;;;;;4993789;28;20043;-59
2021/04/05 08:25:05;;;;;;;5.93;2.88;;;;;;;;;;4994191;28;20391;-60
2021/04/05 08:28:12;;;;;;;7.60;4.60;;;;;;;;;;4994348;28;20054;-65
2021/04/05 08:31:35;;;;;;;8.40;2.42;;;;;;;;;;4993067;28;20047;-61
2021/04/05 08:34:46;;;;;;;11.13;3.08;;;;;;;;;;4994185;28;20039;-68
2021/04/05 08:38:12;;;;;;;8.40;2.97;;;;;;;;;;4993948;28;20045;-61
2021/04/05 08:41:49;;;;;;;4.72;3.47;;;;;;;;;;4974116;28;20034;-69
2021/04/05 08:44:55;;;;;;;5.28;2.40;;;;;;;;;;4971214;28;20038;-60
2021/04/05 08:48:12;;;;;;;8.80;2.88;;;;;;;;;;4993673;28;20047;-61
2021/04/05 08:51:43;;;;;;;7.45;2.80;;;;;;;;;;4993428;28;20062;-60
2021/04/05 08:54:49;;;;;;;6.20;2.80;;;;;;;;;;4981779;28;20030;-60
2021/04/05 08:57:54;;;;;;;7.95;5.45;;;;;;;;;;4981482;28;20621;-61
2021/04/05 09:01:01;;;;;;;4.28;2.47;;;;;;;;;;4992512;28;20039;-62
2021/04/05 09:04:05;;;;;;;4.07;2.40;;;;;;;;;;4993495;28;20617;-60
2021/04/05 09:07:13;;;;;;;5.75;2.20;;;;;;;;;;4993059;28;20206;-61
2021/04/05 09:10:21;;;;;;;9.75;2.22;;;;;;;;;;4993202;28;20046;-60
2021/04/05 09:13:32;;;;;;;10.27;3.63;;;;;;;;;;4993394;28;20042;-60
2021/04/05 09:16:40;;;;;;;4.18;2.80;;;;;;;;;;4993419;28;20042;-60
2021/04/05 09:20:02;;;;;;;5.45;2.75;;;;;;;;;;4993387;28;20038;-61
2021/04/05 09:23:14;;;;;;;5.70;2.33;;;;;;;;;;4992328;28;20038;-61
2021/04/05 09:26:37;;;;;;;7.18;2.50;;;;;;;;;;4991915;28;20042;-61
2021/04/05 09:30:07;;;;;;;5.72;2.75;;;;;;;;;;4992785;28;20050;-61
2021/04/05 09:33:21;;;;;;;4.07;2.40;;;;;;;;;;4992756;28;20047;-61
2021/04/05 09:36:40;;;;;;;5.53;2.65;;;;;;;;;;4992590;28;20030;-59
2021/04/05 09:40:05;;;;;;;4.07;2.58;;;;;;;;;;4992627;28;20490;-61
2021/04/05 09:43:32;;;;;;;7.97;2.47;;;;;;;;;;4992938;28;20050;-61
2021/04/05 09:46:36;;;;;;;4.30;2.60;;;;;;;;;;4992641;28;20047;-60
2021/04/05 09:49:56;;;;;;;5.25;1.90;;;;;;;;;;4992793;28;20042;-62
2021/04/05 09:53:09;;;;;;;7.78;2.13;;;;;;;;;;4980633;28;20042;-61
2021/04/05 09:56:15;;;;;;;7.70;2.60;;;;;;;;;;4992472;28;20474;-60
2021/04/05 09:59:22;;;;;;;6.35;2.05;;;;;;;;;;4992807;28;20046;-61
2021/04/05 10:02:38;;;;;;;3.53;1.50;;;;;;;;;;4992417;28;20035;-60
2021/04/05 10:05:44;;;;;;;3.67;2.10;;;;;;;;;;4992366;28;20038;-60
2021/04/05 10:08:49;;;;;;;5.05;2.70;;;;;;;;;;4992458;28;20038;-59
2021/04/05 10:11:54;;;;;;;4.68;2.15;;;;;;;;;;4992157;28;20046;-60
2021/04/05 10:14:59;;;;;;;5.60;2.95;;;;;;;;;;4992298;28;20506;-60
2021/04/05 10:18:07;;;;;;;5.78;2.38;;;;;;;;;;4991103;28;20042;-60
2021/04/05 10:21:12;;;;;;;3.90;2.10;;;;;;;;;;4992065;28;20491;-61
2021/04/05 10:24:19;;;;;;;5.53;2.38;;;;;;;;;;4991864;28;20035;-61
2021/04/05 10:27:26;;;;;;;6.40;2.38;;;;;;;;;;4991887;28;20094;-60
2021/04/05 10:30:33;;;;;;;7.57;2.50;;;;;;;;;;4991849;28;20050;-60
2021/04/05 10:33:42;;;;;;;11.95;2.38;;;;;;;;;;4991633;28;20050;-62
2021/04/05 10:36:59;;;;;;;7.57;3.13;;;;;;;;;;4991996;28;20512;-62
2021/04/05 10:40:04;;;;;;;5.05;2.58;;;;;;;;;;4991838;28;20208;-61
2021/04/05 10:43:26;;;;;;;8.73;3.70;;;;;;;;;;4991757;28;20034;-62
2021/04/05 10:46:39;;;;;;;7.78;2.90;;;;;;;;;;4991300;28;20046;-61
2021/04/05 10:49:45;;;;;;;11.45;3.28;;;;;;;;;;4991602;28;20043;-61
2021/04/05 10:52:51;;;;;;;9.90;2.80;;;;;;;;;;4991781;28;20049;-61
2021/04/05 10:56:01;;;;;;;6.38;2.15;;;;;;;;;;4991580;28;20035;-61
2021/04/05 10:59:24;;;;;;;3.35;1.88;;;;;;;;;;4991677;28;20042;-61
2021/04/05 11:02:49;;;;;;;6.60;2.60;;;;;;;;;;4989939;28;20043;-61
2021/04/05 11:05:58;;;;;;;6.18;3.10;;;;;;;;;;4972406;28;20046;-61
2021/04/05 11:09:05;;;;;;;10.15;4.15;;;;;;;;;;4979513;28;20379;-59
2021/04/05 11:12:11;;;;;;;15.05;5.35;;;;;;;;;;4991682;28;20049;-62
2021/04/05 11:15:19;;;;;;;9.80;5.32;;;;;;;;;;4991379;28;20048;-62
2021/04/05 11:18:25;;;;;;;11.70;5.10;;;;;;;;;;4991287;28;20038;-60
2021/04/05 11:21:41;;;;;;;6.97;3.65;;;;;;;;;;4991418;28;20050;-60
2021/04/05 11:24:52;;;;;;;7.47;3.42;;;;;;;;;;4991622;28;20375;-62
2021/04/05 11:27:59;;;;;;;;;;;;;;;;;;4991915;28;20035;-60
2021/04/05 11:31:22;;;;;;;7.07;5.10;;;;;;;;;;4991309;28;19925;-60
2021/04/05 11:34:27;;;;;;;6.43;4.32;;;;;;;;;;4991042;28;20042;-62
2021/04/05 11:37:36;;;;;;;17.85;10.45;;;;;;;;;;4979301;28;20422;-62
2021/04/05 11:40:41;;;;;;;7.20;3.88;;;;;;;;;;4991039;28;20053;-62
2021/04/05 11:43:49;;;;;;;13.55;7.35;;;;;;;;;;4991351;28;20046;-60
2021/04/05 11:46:56;;;;;;;11.32;7.80;;;;;;;;;;4993650;28;20057;-62
2021/04/05 11:50:00;;;;;;;13.65;8.68;;;;;;;;;;4982588;28;20058;-62
2021/04/05 11:53:10;;;;;;;28.60;19.75;;;;;;;;;;4995428;28;20057;-72
2021/04/05 11:56:14;;;;;;;43.65;28.42;;;;;;;;;;4995112;28;20037;-73
2021/04/05 11:59:20;;;;;;;33.72;21.27;;;;;;;;;;4995489;28;20061;-73
2021/04/05 12:02:28;;;;;;;20.05;11.23;;;;;;;;;;4994578;28;20053;-72
2021/04/05 12:05:38;;;;;;;21.35;12.50;;;;;;;;;;4994958;28;20501;-71
2021/04/05 12:08:48;;;;;;;26.17;16.15;;;;;;;;;;4995795;28;20049;-73
2021/04/05 12:11:54;;;;;;;24.38;17.00;;;;;;;;;;4994716;28;20049;-72
2021/04/05 12:15:00;;;;;;;14.77;10.93;;;;;;;;;;4994890;28;20046;-71
2021/04/05 12:18:04;;;;;;;20.73;11.75;;;;;;;;;;4994434;28;20042;-72
2021/04/05 12:21:12;;;;;;;17.10;9.50;;;;;;;;;;4994371;28;20058;-72
2021/04/05 12:24:23;;;;;;;8.73;5.18;;;;;;;;;;4994340;28;20051;-71
2021/04/05 12:27:39;;;;;;;9.20;5.28;;;;;;;;;;4994550;28;20038;-72
2021/04/05 12:30:44;;;;;;;8.55;5.30;;;;;;;;;;4994923;28;20046;-71
2021/04/05 12:33:50;;;;;;;6.78;3.65;;;;;;;;;;4994258;28;20046;-75
2021/04/05 12:36:55;;;;;;;8.07;4.50;;;;;;;;;;4994425;28;20046;-62
2021/04/05 12:40:04;;;;;;;6.80;4.30;;;;;;;;;;4993895;28;20046;-61
2021/04/05 12:43:13;;;;;;;9.40;5.70;;;;;;;;;;4994297;28;20042;-61
2021/04/05 12:46:18;;;;;;;7.05;4.13;;;;;;;;;;4981815;28;20042;-60
2021/04/05 12:49:27;;;;;;;6.95;4.22;;;;;;;;;;4982099;28;20490;-61
2021/04/05 12:52:36;;;;;;;7.85;4.85;;;;;;;;;;4994232;28;20054;-61
2021/04/05 12:55:41;;;;;;;5.10;3.13;;;;;;;;;;4994109;28;20039;-61
2021/04/05 12:58:51;;;;;;;5.78;3.90;;;;;;;;;;4993557;28;20038;-62
2021/04/05 13:02:25;;;;;;;10.13;5.07;;;;;;;;;;4993929;28;20042;-60
2021/04/05 13:05:38;;;;;;;10.25;5.90;;;;;;;;;;4994172;28;20038;-62
2021/04/05 13:08:52;;;;;;;12.80;5.38;;;;;;;;;;4993535;28;20030;-61
2021/04/05 13:12:02;;;;;;;7.28;4.30;;;;;;;;;;4993539;28;20050;-61
2021/04/05 13:15:16;;;;;;;11.00;5.10;;;;;;;;;;4993266;28;20039;-62
2021/04/05 13:18:25;;;;;;;7.38;3.78;;;;;;;;;;4993533;28;20516;-62
2021/04/05 13:21:35;;;;;;;12.88;4.00;;;;;;;;;;4993559;28;20422;-63
2021/04/05 13:24:42;;;;;;;5.57;4.28;;;;;;;;;;4994079;28;20039;-61
2021/04/05 13:27:48;;;;;;;7.05;3.45;;;;;;;;;;4993458;28;20395;-62
2021/04/05 13:30:58;;;;;;;14.23;6.28;;;;;;;;;;4993122;28;20050;-62
2021/04/05 13:34:03;;;;;;;8.15;4.80;;;;;;;;;;4992882;28;20051;-61
2021/04/05 13:37:09;;;;;;;7.97;4.00;;;;;;;;;;4993278;28;20396;-61
2021/04/05 13:40:14;;;;;;;7.45;3.20;;;;;;;;;;4992919;28;20035;-60
2021/04/05 13:43:20;;;;;;;8.63;3.85;;;;;;;;;;4993351;28;20035;-61
2021/04/05 13:46:25;;;;;;;6.13;3.42;;;;;;;;;;4992993;28;20034;-61
2021/04/05 13:49:52;;;;;;;6.40;3.38;;;;;;;;;;4993108;28;20034;-62
2021/04/05 13:52:58;;;;;;;7.25;3.95;;;;;;;;;;4995770;28;20494;-60
2021/04/05 13:56:10;;;;;;;6.25;3.75;;;;;;;;;;4992963;28;20034;-60
2021/04/05 13:59:19;;;;;;;10.10;3.33;;;;;;;;;;4992739;28;20031;-61
2021/04/05 14:02:25;;;;;;;11.32;4.05;;;;;;;;;;4992652;28;20046;-61
2021/04/05 14:05:37;;;;;;;7.70;4.30;;;;;;;;;;4992661;28;20042;-61
2021/04/05 14:08:43;;;;;;;13.75;4.53;;;;;;;;;;4980376;28;20042;-61
2021/04/05 14:11:55;;;;;;;7.93;4.70;;;;;;;;;;4992138;28;20046;-61
2021/04/05 14:14:59;;;;;;;10.68;4.45;;;;;;;;;;4980446;28;20038;-60
2021/04/05 14:18:20;;;;;;;7.38;3.88;;;;;;;;;;4992140;28;20283;-61
2021/04/05 14:21:25;;;;;;;12.07;5.95;;;;;;;;;;4992047;28;20038;-61
2021/04/05 14:24:31;;;;;;;9.85;4.40;;;;;;;;;;4992391;28;20046;-61
2021/04/05 14:27:40;;;;;;;11.30;5.82;;;;;;;;;;4992048;28;20371;-62
2021/04/05 14:30:46;;;;;;;9.25;4.28;;;;;;;;;;4980167;28;20042;-62
2021/04/05 14:33:52;;;;;;;9.18;4.00;;;;;;;;;;4991947;28;20054;-61
2021/04/05 14:37:08;;;;;;;6.28;3.10;;;;;;;;;;4991998;28;20282;-61
2021/04/05 14:40:15;;;;;;;6.78;3.53;;;;;;;;;;4991910;28;20027;-61
2021/04/05 14:43:31;;;;;;;6.68;3.70;;;;;;;;;;4980130;28;20046;-61
2021/04/05 14:46:44;;;;;;;7.65;3.35;;;;;;;;;;4992097;28;20038;-62
2021/04/05 14:49:50;;;;;;;8.68;3.10;;;;;;;;;;4992043;28;20038;-62
2021/04/05 14:53:00;;;;;;;9.88;3.28;;;;;;;;;;4992254;28;20039;-61
2021/04/05 14:56:10;;;;;;;7.55;3.03;;;;;;;;;;4991458;28;20038;-60
2021/04/05 14:59:16;;;;;;;8.10;3.15;;;;;;;;;;4980014;28;20038;-61
2021/04/05 15:02:21;;;;;;;8.43;3.05;;;;;;;;;;4991653;28;20039;-62
2021/04/05 15:05:25;;;;;;;5.13;2.72;;;;;;;;;;4991753;28;20046;-61
2021/04/05 15:08:41;;;;;;;7.75;3.03;;;;;;;;;;4991377;28;20035;-62
2021/04/05 15:11:52;;;;;;;8.48;3.30;;;;;;;;;;4979653;28;20039;-60
2021/04/05 15:15:02;;;;;;;10.13;4.50;;;;;;;;;;4991745;28;20053;-60
2021/04/05 15:18:07;;;;;;;5.85;2.33;;;;;;;;;;4991411;28;20631;-61
2021/04/05 15:21:12;;;;;;;7.38;2.78;;;;;;;;;;4993449;28;20039;-61
2021/04/05 15:24:21;;;;;;;15.52;3.25;;;;;;;;;;4995782;28;20050;-62
2021/04/05 15:27:30;;;;;;;10.77;3.08;;;;;;;;;;4995173;28;20045;-61
2021/04/05 15:30:45;;;;;;;11.50;3.72;;;;;;;;;;4995390;28;20371;-61
2021/04/05 15:33:50;;;;;;;7.93;2.67;;;;;;;;;;4995011;28;20047;-62
2021/04/05 15:36:55;;;;;;;7.93;3.17;;;;;;;;;;4995469;28;20039;-61
2021/04/05 15:40:00;;;;;;;9.48;3.13;;;;;;;;;;4995085;28;20371;-60
2021/04/05 15:43:07;;;;;;;7.90;3.05;;;;;;;;;;4995062;28;20035;-61
2021/04/05 15:46:20;;;;;;;4.45;2.70;;;;;;;;;;4995192;28;20383;-61
2021/04/05 15:49:28;;;;;;;9.93;2.88;;;;;;;;;;4995139;28;20030;-61
2021/04/05 15:52:32;;;;;;;11.35;2.95;;;;;;;;;;4994633;28;20046;-60
2021/04/05 15:55:38;;;;;;;38.65;4.80;;;;;;;;;;4994758;28;20387;-60
2021/04/05 15:58:51;;;;;;;10.60;3.30;;;;;;;;;;4995045;28;20513;-61
2021/04/05 16:01:58;;;;;;;6.25;3.20;;;;;;;;;;4995035;28;20398;-61
2021/04/05 16:05:22;;;;;;;7.45;3.47;;;;;;;;;;4994879;28;20038;-61
2021/04/05 16:08:30;;;;;;;5.80;2.92;;;;;;;;;;4994674;28;20030;-61
2021/04/05 16:11:39;;;;;;;6.50;2.70;;;;;;;;;;4982660;28;20379;-62
2021/04/05 16:14:59;;;;;;;11.50;2.85;;;;;;;;;;4994786;28;20030;-61
2021/04/05 16:18:17;;;;;;;9.80;3.30;;;;;;;;;;4982563;28;20400;-61
2021/04/05 16:21:26;;;;;;;5.55;3.42;;;;;;;;;;4994829;28;20038;-60
2021/04/05 16:24:43;;;;;;;11.85;3.67;;;;;;;;;;4994361;28;20050;-61
2021/04/05 16:27:54;;;;;;;11.00;3.78;;;;;;;;;;4994477;28;20629;-61
2021/04/05 16:31:00;;;;;;;11.60;2.88;;;;;;;;;;4994148;28;20486;-61
2021/04/05 16:34:17;;;;;;;12.88;2.85;;;;;;;;;;4993601;28;20046;-62
2021/04/05 16:37:29;;;;;;;8.20;2.40;;;;;;;;;;4994184;28;20038;-61
2021/04/05 16:40:37;;;;;;;7.28;2.92;;;;;;;;;;4993465;28;20030;-61
2021/04/05 16:43:51;;;;;;;7.25;2.70;;;;;;;;;;4994136;28;20038;-60
2021/04/05 16:47:02;;;;;;;9.30;3.13;;;;;;;;;;4994035;28;20042;-60
2021/04/05 16:50:08;;;;;;;10.43;3.10;;;;;;;;;;4994104;28;20038;-61
2021/04/05 16:53:13;;;;;;;6.90;2.95;;;;;;;;;;4993785;28;20050;-61
2021/04/05 16:56:18;;;;;;;10.43;2.60;;;;;;;;;;4993584;28;20030;-61
2021/04/05 16:59:27;;;;;;;11.75;2.47;;;;;;;;;;4993627;28;20521;-61
2021/04/05 17:02:32;;;;;;;7.47;2.72;;;;;;;;;;4993796;28;20038;-60
2021/04/05 17:05:39;;;;;;;6.13;2.70;;;;;;;;;;4993539;28;20046;-61
2021/04/05 17:08:46;;;;;;;10.48;3.38;;;;;;;;;;4993739;28;20394;-62
2021/04/05 17:11:55;;;;;;;8.98;3.25;;;;;;;;;;4993277;28;20050;-60
2021/04/05 17:14:59;;;;;;;8.05;3.17;;;;;;;;;;4992760;28;20042;-61
2021/04/05 17:18:06;;;;;;;8.50;3.05;;;;;;;;;;4993247;28;20034;-59
2021/04/05 17:21:13;;;;;;;10.25;2.90;;;;;;;;;;4993142;28;20038;-60
2021/04/05 17:24:22;;;;;;;9.15;2.95;;;;;;;;;;4991010;28;20394;-60
2021/04/05 17:27:27;;;;;;;12.02;3.70;;;;;;;;;;4991828;28;20375;-60
2021/04/05 17:30:41;;;;;;;8.18;4.38;;;;;;;;;;4993182;28;20062;-60
2021/04/05 17:33:50;;;;;;;8.00;4.03;;;;;;;;;;4992677;28;20383;-60
2021/04/05 17:37:01;;;;;;;13.05;3.20;;;;;;;;;;4992961;28;20379;-61
2021/04/05 17:40:06;;;;;;;7.68;3.80;;;;;;;;;;4992701;28;20041;-61
2021/04/05 17:43:13;;;;;;;17.95;5.22;;;;;;;;;;4991496;28;20034;-61
2021/04/05 17:46:20;;;;;;;20.17;5.38;;;;;;;;;;4992687;28;20042;-61
2021/04/05 17:49:34;;;;;;;12.48;5.20;;;;;;;;;;4992329;28;20038;-61
2021/04/05 17:52:41;;;;;;;10.70;4.45;;;;;;;;;;4992284;28;20410;-61
2021/04/05 17:55:57;;;;;;;9.90;4.03;;;;;;;;;;4993426;28;20042;-77
2021/04/05 17:59:21;;;;;;;11.98;4.25;;;;;;;;;;4994853;28;20034;-77
2021/04/05 18:02:26;;;;;;;12.77;5.43;;;;;;;;;;4982361;28;20035;-76
2021/04/05 18:05:33;;;;;;;9.23;3.88;;;;;;;;;;4994446;28;20409;-78
2021/04/05 18:08:56;;;;;;;8.45;3.50;;;;;;;;;;4994846;28;20038;-77
2021/04/05 18:12:01;;;;;;;13.15;3.95;;;;;;;;;;4994648;28;20046;-78
2021/04/05 18:15:06;;;;;;;13.05;5.03;;;;;;;;;;4994501;28;20045;-77
2021/04/05 18:18:14;;;;;;;11.88;5.30;;;;;;;;;;4993736;28;20055;-77
2021/04/05 18:21:18;;;;;;;8.98;4.80;;;;;;;;;;4994883;28;20049;-78
2021/04/05 18:24:39;;;;;;;11.48;4.65;;;;;;;;;;4994533;28;20038;-77
2021/04/05 18:27:56;;;;;;;17.63;4.95;;;;;;;;;;4993150;28;20509;-78
2021/04/05 18:31:03;;;;;;;13.00;5.68;;;;;;;;;;4993706;28;20053;-77
2021/04/05 18:34:22;;;;;;;12.57;4.78;;;;;;;;;;4993617;28;20050;-79
2021/04/05 18:37:28;;;;;;;11.45;5.05;;;;;;;;;;4994337;28;20398;-78
2021/04/05 18:40:34;;;;;;;11.13;4.35;;;;;;;;;;4993088;28;20053;-78
2021/04/05 18:43:48;;;;;;;14.25;5.80;;;;;;;;;;4993083;28;20057;-77
2021/04/05 18:47:06;;;;;;;20.92;6.80;;;;;;;;;;4993551;28;20049;-76
2021/04/05 18:50:14;;;;;;;12.30;5.07;;;;;;;;;;4993514;28;20495;-76
2021/04/05 18:53:25;;;;;;;27.92;13.18;;;;;;;;;;4993723;28;20046;-77